Time;durP1;ratioP1;P1;durP2;ratioP2;P2;SDS_P1;SDS_P2;PMS_P1;PMS_P2;Temp;Humidity;BMP_temperature;BMP_pressure;BME280_temperature;BME280_humidity;BME280_pressure;Samples;Min_cycle;Max_cycle;Signal;HPM_P1;HPM_P2
2021/12/08 00:00:17;;;;;;;11.30;6.63;;;1.70;97.30;;;;;;4978577;28;20688;-80
2021/12/08 00:02:43;;;;;;;17.97;7.40;;;1.70;97.30;;;;;;4978126;28;20514;-78
2021/12/08 00:05:11;;;;;;;13.10;6.17;;;1.70;97.30;;;;;;4978197;28;20421;-80
2021/12/08 00:07:38;;;;;;;12.90;7.77;;;1.70;97.30;;;;;;4978616;28;20508;-77
2021/12/08 00:10:16;;;;;;;14.23;7.43;;;1.70;97.30;;;;;;4978807;28;20422;-79
2021/12/08 00:15:29;;;;;;;11.93;6.10;;;1.70;97.30;;;;;;4980417;28;20452;-79
2021/12/08 00:17:56;;;;;;;14.27;6.83;;;1.70;97.30;;;;;;4978465;28;20430;-81
2021/12/08 00:20:22;;;;;;;12.20;6.10;;;1.60;97.30;;;;;;4978655;28;20416;-81
2021/12/08 00:22:47;;;;;;;15.83;6.90;;;1.60;97.30;;;;;;4979052;28;20911;-81
2021/12/08 00:25:13;;;;;;;13.63;6.17;;;1.60;97.30;;;;;;4976740;28;20230;-77
2021/12/08 00:27:38;;;;;;;15.50;7.07;;;1.50;97.30;;;;;;4977594;28;20217;-81
2021/12/08 00:30:05;;;;;;;15.57;6.83;;;1.50;97.30;;;;;;4978825;28;20260;-81
2021/12/08 00:32:33;;;;;;;14.20;6.17;;;1.50;97.30;;;;;;4977376;28;20178;-80
2021/12/08 00:34:59;;;;;;;14.00;7.13;;;1.50;97.30;;;;;;4974063;28;20496;-77
2021/12/08 00:37:26;;;;;;;11.50;6.23;;;1.50;97.30;;;;;;4973912;28;20423;-77
2021/12/08 00:39:52;;;;;;;16.47;6.50;;;1.50;97.30;;;;;;4972293;28;20222;-77
2021/12/08 00:42:19;;;;;;;14.30;6.47;;;1.50;97.30;;;;;;4972813;28;20481;-76
2021/12/08 00:44:45;;;;;;;15.77;7.30;;;1.50;97.30;;;;;;4973207;28;20492;-76
2021/12/08 00:47:10;;;;;;;14.70;6.60;;;1.50;97.30;;;;;;4973103;28;20438;-77
2021/12/08 00:49:38;;;;;;;18.37;7.57;;;1.50;97.30;;;;;;4974431;28;20182;-77
2021/12/08 00:52:04;;;;;;;17.00;7.50;;;1.50;97.30;;;;;;4989416;28;20179;-75
2021/12/08 00:54:29;;;;;;;16.57;8.57;;;1.50;97.30;;;;;;4972929;28;20418;-76
2021/12/08 00:56:57;;;;;;;20.50;8.23;;;1.50;97.30;;;;;;4972992;28;20472;-76
2021/12/08 00:59:23;;;;;;;17.83;7.50;;;1.40;97.30;;;;;;4972859;28;20175;-77
2021/12/08 01:01:48;;;;;;;18.90;7.87;;;1.40;97.30;;;;;;4972794;28;20429;-77
2021/12/08 01:04:15;;;;;;;17.70;7.57;;;1.40;97.30;;;;;;4974027;28;20170;-76
2021/12/08 01:06:42;;;;;;;18.00;7.90;;;1.40;97.30;;;;;;4972824;28;20209;-77
2021/12/08 01:09:08;;;;;;;21.83;7.47;;;1.30;97.30;;;;;;4972612;28;20418;-77
2021/12/08 01:11:34;;;;;;;22.37;8.17;;;1.30;97.30;;;;;;4974084;28;20512;-76
2021/12/08 01:13:59;;;;;;;22.27;8.93;;;1.30;97.30;;;;;;4972601;28;20564;-77
2021/12/08 01:16:25;;;;;;;28.40;9.40;;;1.30;97.30;;;;;;4988859;28;20217;-76
2021/12/08 01:18:51;;;;;;;31.50;9.27;;;1.30;97.30;;;;;;4972574;28;20265;-77
2021/12/08 01:21:18;;;;;;;21.83;9.73;;;1.30;97.30;;;;;;4972806;28;20181;-76
2021/12/08 01:23:44;;;;;;;29.00;9.30;;;1.30;97.30;;;;;;4973678;28;20942;-76
2021/12/08 01:26:10;;;;;;;24.33;9.23;;;1.30;97.30;;;;;;4972196;28;20884;-76
2021/12/08 01:28:37;;;;;;;25.43;10.23;;;1.30;97.30;;;;;;4988507;28;20457;-77
2021/12/08 01:31:04;;;;;;;24.67;8.57;;;1.30;97.30;;;;;;4973287;28;20423;-77
2021/12/08 01:33:33;;;;;;;27.60;9.00;;;1.30;97.30;;;;;;4987781;28;20482;-77
2021/12/08 01:36:01;;;;;;;36.73;9.67;;;1.30;97.30;;;;;;4970986;28;20509;-76
2021/12/08 01:38:27;;;;;;;35.47;9.80;;;1.30;97.30;;;;;;4972457;28;20422;-77
2021/12/08 01:40:53;;;;;;;36.37;11.00;;;1.40;97.30;;;;;;4972033;28;20436;-75
2021/12/08 01:43:27;;;;;;;26.13;9.37;;;1.40;97.30;;;;;;4973334;28;20421;-77
2021/12/08 01:46:01;;;;;;;21.07;9.23;;;1.30;97.30;;;;;;4973369;28;20421;-76
2021/12/08 01:48:42;;;;;;;20.67;8.17;;;1.30;97.30;;;;;;4972036;28;20495;-76
2021/12/08 01:51:13;;;;;;;29.27;9.13;;;1.40;97.30;;;;;;4972160;28;20453;-76
2021/12/08 01:53:41;;;;;;;24.20;10.87;;;1.30;97.30;;;;;;4973482;28;20915;-77
2021/12/08 01:56:11;;;;;;;28.57;9.27;;;1.30;97.30;;;;;;4972234;28;20522;-76
2021/12/08 01:58:41;;;;;;;41.13;10.20;;;1.40;97.30;;;;;;4973696;28;20513;-77
2021/12/08 02:01:12;;;;;;;22.23;8.33;;;1.40;97.30;;;;;;4972105;28;20978;-77
2021/12/08 02:03:41;;;;;;;19.67;8.23;;;1.40;97.30;;;;;;4973309;28;21430;-75
2021/12/08 02:06:10;;;;;;;27.50;9.00;;;1.40;97.30;;;;;;4972175;28;20493;-78
2021/12/08 02:08:37;;;;;;;20.03;8.77;;;1.40;97.30;;;;;;4972123;28;20939;-76
2021/12/08 02:11:05;;;;;;;23.60;8.57;;;1.40;97.30;;;;;;4971894;28;21066;-78
2021/12/08 02:13:37;;;;;;;23.13;8.70;;;1.40;97.30;;;;;;4973649;28;20414;-76
2021/12/08 02:16:08;;;;;;;24.87;9.13;;;1.40;97.30;;;;;;4972162;28;20954;-77
2021/12/08 02:18:35;;;;;;;26.03;8.60;;;1.30;97.30;;;;;;4971553;28;20510;-77
2021/12/08 02:21:19;;;;;;;18.00;7.47;;;1.30;97.30;;;;;;4971016;28;20516;-77
2021/12/08 02:23:45;;;;;;;32.00;9.10;;;1.30;97.30;;;;;;4971327;28;20414;-76
2021/12/08 02:26:11;;;;;;;28.20;9.30;;;1.30;97.30;;;;;;4971306;28;20845;-77
2021/12/08 02:28:37;;;;;;;25.20;10.73;;;1.30;97.30;;;;;;4971265;28;20190;-75
2021/12/08 02:31:07;;;;;;;21.00;9.70;;;1.30;97.30;;;;;;4971868;28;20310;-77
2021/12/08 02:47:31;;;;;;;21.77;7.73;;;1.30;97.30;;;;;;4972212;28;20503;-76
2021/12/08 02:49:58;;;;;;;21.67;8.23;;;1.30;97.30;;;;;;4971233;28;20505;-77
2021/12/08 02:52:24;;;;;;;18.03;7.40;;;1.30;97.30;;;;;;4971238;28;20428;-76
2021/12/08 02:54:52;;;;;;;30.60;8.93;;;1.20;97.30;;;;;;4970852;28;20464;-77
2021/12/08 02:57:25;;;;;;;29.50;11.73;;;1.20;97.30;;;;;;4972230;28;20442;-77
2021/12/08 02:59:51;;;;;;;24.43;9.13;;;1.20;97.30;;;;;;4971208;28;20908;-75
2021/12/08 03:02:17;;;;;;;24.60;9.23;;;1.10;97.30;;;;;;4972256;28;20467;-77
2021/12/08 03:04:44;;;;;;;23.53;8.60;;;1.20;97.30;;;;;;4970775;28;20171;-76
2021/12/08 03:07:10;;;;;;;21.00;7.70;;;1.10;97.30;;;;;;4972090;28;20190;-77
2021/12/08 03:09:36;;;;;;;29.20;9.60;;;1.10;97.30;;;;;;4970936;28;20425;-76
2021/12/08 03:12:03;;;;;;;25.67;10.27;;;1.10;97.30;;;;;;4972307;28;20558;-77
2021/12/08 03:14:30;;;;;;;28.97;9.40;;;1.10;97.30;;;;;;4970805;28;20422;-76
2021/12/08 03:17:01;;;;;;;21.43;8.13;;;1.10;97.30;;;;;;4970736;28;20465;-76
2021/12/08 03:19:29;;;;;;;29.33;9.63;;;1.10;97.30;;;;;;4970650;28;20414;-76
2021/12/08 03:21:55;;;;;;;25.33;10.47;;;1.10;97.30;;;;;;4972247;28;20415;-76
2021/12/08 03:24:24;;;;;;;26.77;8.90;;;1.00;97.30;;;;;;4971786;28;20449;-77
2021/12/08 03:29:29;;;;;;;19.07;8.43;;;1.00;97.30;;;;;;4972509;28;20402;-78
2021/12/08 03:32:04;;;;;;;30.10;10.87;;;1.00;97.30;;;;;;4970543;28;20418;-75
2021/12/08 03:34:31;;;;;;;30.33;9.67;;;1.00;97.30;;;;;;4970700;28;20417;-77
2021/12/08 03:36:57;;;;;;;29.63;10.27;;;1.00;97.30;;;;;;4971929;28;20966;-76
2021/12/08 03:39:22;;;;;;;29.40;11.17;;;1.00;97.30;;;;;;4970529;28;20792;-77
2021/12/08 03:41:49;;;;;;;26.73;9.40;;;1.00;97.30;;;;;;4970973;28;20424;-76
2021/12/08 03:44:19;;;;;;;30.80;9.10;;;1.00;97.30;;;;;;4970351;28;20185;-76
2021/12/08 03:46:48;;;;;;;34.87;9.47;;;1.00;97.30;;;;;;4971133;28;20453;-77
2021/12/08 03:49:19;;;;;;;25.67;9.23;;;1.00;97.30;;;;;;4971352;28;20468;-77
2021/12/08 03:51:50;;;;;;;23.43;9.30;;;0.90;97.30;;;;;;4971139;28;20422;-76
2021/12/08 03:54:17;;;;;;;26.00;10.13;;;0.90;97.30;;;;;;4970964;28;20484;-75
2021/12/08 03:56:43;;;;;;;25.60;9.80;;;0.90;97.30;;;;;;4969802;28;20462;-76
2021/12/08 03:59:10;;;;;;;24.77;10.30;;;0.90;97.30;;;;;;4973260;28;20423;-78
2021/12/08 04:01:40;;;;;;;32.67;9.43;;;0.90;97.30;;;;;;4989459;28;21062;-76
2021/12/08 04:04:10;;;;;;;34.03;10.10;;;0.90;97.30;;;;;;4973420;28;20424;-76
2021/12/08 04:06:52;;;;;;;25.83;8.60;;;0.90;97.30;;;;;;4974761;28;20445;-76
2021/12/08 04:12:00;;;;;;;25.03;10.50;;;0.90;97.30;;;;;;4975107;28;20386;-77
2021/12/08 04:14:39;;;;;;;28.70;10.47;;;0.90;97.30;;;;;;4974990;28;20440;-77
2021/12/08 04:17:21;;;;;;;25.40;9.80;;;0.80;97.30;;;;;;4974837;28;20544;-77
2021/12/08 04:19:53;;;;;;;22.13;8.60;;;0.80;97.30;;;;;;4974643;28;20401;-76
2021/12/08 04:22:32;;;;;;;27.90;9.17;;;0.80;97.30;;;;;;4973602;28;20433;-78
2021/12/08 04:25:08;;;;;;;20.60;8.97;;;0.80;97.30;;;;;;4972995;28;21156;-77
2021/12/08 04:27:48;;;;;;;33.30;10.87;;;0.80;97.30;;;;;;4973494;28;20958;-77
2021/12/08 04:30:32;;;;;;;25.47;9.47;;;0.90;97.30;;;;;;4973258;28;20517;-77
2021/12/08 04:33:00;;;;;;;23.03;9.27;;;0.90;97.30;;;;;;4973295;28;20453;-77
2021/12/08 04:35:28;;;;;;;30.50;10.07;;;0.90;97.30;;;;;;4974731;28;20460;-77
2021/12/08 04:38:00;;;;;;;20.30;8.00;;;0.90;97.30;;;;;;4974747;28;20442;-77
2021/12/08 04:40:37;;;;;;;28.57;10.60;;;0.90;97.30;;;;;;4971954;28;20430;-76
2021/12/08 04:43:15;;;;;;;28.07;9.87;;;0.90;97.30;;;;;;4972299;28;20851;-78
2021/12/08 04:46:09;;;;;;;31.73;9.87;;;1.00;97.30;;;;;;4971704;28;21111;-77
2021/12/08 04:48:58;;;;;;;26.17;9.80;;;1.00;97.30;;;;;;4972247;28;21001;-77
2021/12/08 05:07:48;;;;;;;26.57;10.43;;;0.90;97.30;;;;;;4973228;28;20939;-77
2021/12/08 05:10:21;;;;;;;30.70;10.67;;;1.00;97.30;;;;;;4972396;28;20406;-77
2021/12/08 05:12:50;;;;;;;32.90;11.73;;;1.00;97.30;;;;;;4971576;28;20406;-77
2021/12/08 05:15:30;;;;;;;26.10;9.93;;;1.00;97.30;;;;;;4972550;28;20959;-77
2021/12/08 05:18:05;;;;;;;36.23;11.70;;;1.00;97.30;;;;;;4972692;28;20520;-77
2021/12/08 05:20:41;;;;;;;31.43;11.57;;;1.00;97.30;;;;;;4971807;28;20418;-77
2021/12/08 05:23:13;;;;;;;36.17;10.83;;;1.00;97.30;;;;;;4971343;28;20918;-77
2021/12/08 05:25:42;;;;;;;32.40;12.17;;;1.00;97.30;;;;;;4972634;28;20827;-76
2021/12/08 05:28:11;;;;;;;37.70;12.97;;;1.00;97.30;;;;;;4973185;28;20418;-77
2021/12/08 05:30:45;;;;;;;36.80;12.53;;;1.00;97.30;;;;;;4971922;28;20429;-77
2021/12/08 05:33:12;;;;;;;38.90;11.90;;;1.00;97.30;;;;;;4972508;28;20433;-76
2021/12/08 05:35:40;;;;;;;34.30;11.33;;;1.00;97.30;;;;;;4973487;28;20465;-75
2021/12/08 05:38:05;;;;;;;35.67;13.77;;;1.00;97.30;;;;;;4973345;28;20424;-77
2021/12/08 05:40:42;;;;;;;31.97;10.93;;;1.00;97.30;;;;;;4972673;28;20406;-77
2021/12/08 05:43:10;;;;;;;44.00;12.40;;;1.00;97.30;;;;;;4972479;28;20442;-77
2021/12/08 05:45:37;;;;;;;34.90;12.30;;;1.00;97.30;;;;;;4971060;28;20414;-77
2021/12/08 05:48:03;;;;;;;41.57;13.57;;;1.00;97.30;;;;;;4972129;28;20428;-77
2021/12/08 05:50:40;;;;;;;34.97;11.47;;;1.00;97.30;;;;;;4971063;28;20444;-77
2021/12/08 05:53:06;;;;;;;40.00;13.90;;;1.10;97.30;;;;;;4970932;28;20413;-77
2021/12/08 05:55:32;;;;;;;30.53;11.83;;;1.10;97.30;;;;;;4972021;28;21045;-77
2021/12/08 05:57:58;;;;;;;33.70;12.27;;;1.10;97.30;;;;;;4970880;28;20549;-77
2021/12/08 06:00:29;;;;;;;32.83;11.57;;;1.10;97.30;;;;;;4970812;28;20495;-77
2021/12/08 06:02:56;;;;;;;35.07;13.77;;;1.10;97.30;;;;;;4964030;28;20932;-77
2021/12/08 06:05:25;;;;;;;46.10;13.53;;;1.10;97.30;;;;;;4970758;28;20418;-77
2021/12/08 06:07:50;;;;;;;43.47;13.80;;;1.00;97.30;;;;;;4972140;28;20430;-77
2021/12/08 06:10:21;;;;;;;38.80;13.20;;;1.10;97.30;;;;;;4969568;28;20512;-77
2021/12/08 06:12:49;;;;;;;36.97;11.70;;;1.10;97.30;;;;;;4970066;28;20187;-77
2021/12/08 06:15:16;;;;;;;43.87;11.90;;;1.10;97.30;;;;;;4970590;28;20448;-77
2021/12/08 06:17:41;;;;;;;38.57;13.10;;;1.10;97.30;;;;;;4975297;28;20434;-77
2021/12/08 06:20:11;;;;;;;29.83;12.60;;;1.10;97.30;;;;;;4969990;28;20414;-77
2021/12/08 06:22:38;;;;;;;30.40;12.20;;;1.10;97.30;;;;;;4984038;28;20181;-77
2021/12/08 06:25:04;;;;;;;37.63;11.70;;;1.10;97.30;;;;;;4969047;28;21009;-77
2021/12/08 06:27:30;;;;;;;38.73;13.47;;;1.10;97.30;;;;;;4973206;28;20437;-77
2021/12/08 06:29:56;;;;;;;35.93;12.57;;;1.10;97.30;;;;;;4968980;28;20449;-77
2021/12/08 06:32:21;;;;;;;48.20;14.03;;;1.10;97.30;;;;;;4971741;28;20254;-77
2021/12/08 06:34:54;;;;;;;41.33;13.27;;;1.10;97.30;;;;;;4990952;28;20208;-75
2021/12/08 06:37:27;;;;;;;38.43;12.80;;;1.10;97.30;;;;;;4988645;28;20829;-76
2021/12/08 06:39:58;;;;;;;39.63;13.03;;;1.10;97.30;;;;;;4989152;28;20751;-77
2021/12/08 06:42:29;;;;;;;40.13;13.60;;;1.10;97.30;;;;;;4989231;28;20753;-75
2021/12/08 06:44:56;;;;;;;33.57;13.53;;;1.10;97.30;;;;;;4989034;28;20874;-77
2021/12/08 06:47:25;;;;;;;39.10;13.27;;;1.10;97.30;;;;;;4989303;28;20467;-77
2021/12/08 06:49:53;;;;;;;37.80;12.67;;;1.10;97.30;;;;;;4987555;28;20931;-78
2021/12/08 06:52:26;;;;;;;40.57;12.27;;;1.10;97.30;;;;;;4986853;28;20819;-77
2021/12/08 06:55:00;;;;;;;42.63;12.77;;;1.10;97.30;;;;;;4986732;28;20432;-77
2021/12/08 06:57:36;;;;;;;33.47;11.80;;;1.10;97.30;;;;;;4987698;28;20445;-76
2021/12/08 07:00:21;;;;;;;36.00;13.17;;;1.20;97.30;;;;;;4988428;28;20405;-77
2021/12/08 07:02:57;;;;;;;30.23;13.87;;;1.20;97.30;;;;;;4989416;28;20427;-76
2021/12/08 07:05:31;;;;;;;38.63;12.97;;;1.20;97.30;;;;;;4990070;28;20432;-76
2021/12/08 07:08:09;;;;;;;29.23;11.00;;;1.20;97.30;;;;;;4990519;28;20440;-76
2021/12/08 07:10:42;;;;;;;38.00;11.80;;;1.20;97.30;;;;;;4990436;28;20408;-76
2021/12/08 07:13:14;;;;;;;34.07;12.87;;;1.30;97.30;;;;;;4990486;28;20428;-77
2021/12/08 07:15:46;;;;;;;34.03;12.10;;;1.30;97.30;;;;;;4990234;28;20990;-77
2021/12/08 07:18:37;;;;;;;29.63;11.00;;;1.30;97.30;;;;;;4990169;28;20476;-76
2021/12/08 07:21:05;;;;;;;34.57;12.07;;;1.30;97.30;;;;;;4991722;28;20421;-76
2021/12/08 07:23:39;;;;;;;29.90;10.60;;;1.30;97.30;;;;;;4991509;28;20503;-77
2021/12/08 07:26:21;;;;;;;34.57;12.37;;;1.30;97.30;;;;;;4989879;28;20472;-76
2021/12/08 07:28:50;;;;;;;31.90;11.60;;;1.40;97.30;;;;;;4990010;28;20851;-76
2021/12/08 07:31:27;;;;;;;31.57;11.80;;;1.40;97.30;;;;;;4989556;28;20421;-76
2021/12/08 07:34:04;;;;;;;32.30;11.37;;;1.40;97.30;;;;;;4991897;28;20902;-77
2021/12/08 07:36:33;;;;;;;36.07;12.93;;;1.40;97.30;;;;;;4993328;28;21139;-77
2021/12/08 07:38:59;;;;;;;33.60;12.10;;;1.40;97.30;;;;;;4993747;28;20563;-76
2021/12/08 07:41:33;;;;;;;44.27;12.60;;;1.40;97.30;;;;;;4991759;28;20426;-76
2021/12/08 07:44:04;;;;;;;39.67;14.23;;;1.40;97.30;;;;;;4992806;28;20420;-77
2021/12/08 07:46:38;;;;;;;35.20;11.27;;;1.40;97.30;;;;;;4993963;28;20464;-77
2021/12/08 07:49:15;;;;;;;37.73;13.03;;;1.40;97.30;;;;;;4998754;28;20528;-81
2021/12/08 07:51:46;;;;;;;33.93;11.03;;;1.40;97.30;;;;;;4998666;28;20495;-80
2021/12/08 07:54:13;;;;;;;37.73;12.07;;;1.50;97.30;;;;;;4998739;28;20431;-80
2021/12/08 07:56:41;;;;;;;27.57;10.33;;;1.50;97.30;;;;;;4999442;28;20500;-80
2021/12/08 07:59:10;;;;;;;30.93;12.77;;;1.50;97.30;;;;;;4998654;28;20510;-81
2021/12/08 08:01:40;;;;;;;31.83;11.20;;;1.50;97.30;;;;;;5014844;28;20511;-77
2021/12/08 08:04:09;;;;;;;40.93;12.50;;;1.50;97.30;;;;;;4999325;28;20417;-81
2021/12/08 08:06:40;;;;;;;25.13;10.90;;;1.60;97.30;;;;;;4999187;28;20448;-81
2021/12/08 08:09:10;;;;;;;29.60;10.50;;;1.60;97.30;;;;;;4998416;28;20481;-79
2021/12/08 08:11:44;;;;;;;32.57;9.90;;;1.60;97.30;;;;;;4997915;28;20938;-80
2021/12/08 08:14:14;;;;;;;31.07;12.10;;;1.70;97.30;;;;;;4998589;28;20450;-79
2021/12/08 08:16:43;;;;;;;34.33;11.90;;;1.70;97.30;;;;;;4998332;28;20463;-78
2021/12/08 08:19:15;;;;;;;30.27;10.03;;;1.70;97.30;;;;;;4997952;28;20424;-80
2021/12/08 08:21:45;;;;;;;27.37;10.97;;;1.70;97.30;;;;;;4998053;28;20424;-81
2021/12/08 08:24:12;;;;;;;33.47;10.83;;;1.70;97.30;;;;;;4998838;28;20408;-81
2021/12/08 08:26:39;;;;;;;27.77;12.17;;;1.70;97.30;;;;;;4998100;28;20467;-79
2021/12/08 08:29:06;;;;;;;28.73;11.07;;;1.80;97.30;;;;;;4998237;28;20792;-80
2021/12/08 08:31:48;;;;;;;31.90;10.93;;;1.80;97.30;;;;;;4998717;28;20946;-81
2021/12/08 08:34:13;;;;;;;23.90;10.37;;;1.80;97.30;;;;;;4998889;28;20420;-79
2021/12/08 08:36:45;;;;;;;27.03;11.30;;;1.80;97.30;;;;;;4998590;28;20869;-81
2021/12/08 08:39:15;;;;;;;31.40;11.20;;;1.90;97.30;;;;;;4999292;28;20249;-80
2021/12/08 08:41:45;;;;;;;29.87;11.37;;;1.90;97.30;;;;;;4998221;28;20978;-81
2021/12/08 08:44:24;;;;;;;36.17;12.87;;;2.00;97.30;;;;;;4998707;28;20420;-79
2021/12/08 08:46:51;;;;;;;26.93;9.80;;;2.00;97.30;;;;;;4998606;28;20451;-79
2021/12/08 08:49:22;;;;;;;20.47;9.00;;;2.10;97.30;;;;;;4998756;28;20798;-80
2021/12/08 08:51:59;;;;;;;28.00;10.13;;;2.20;97.30;;;;;;5000397;28;20398;-81
2021/12/08 08:54:28;;;;;;;24.13;8.83;;;2.20;97.30;;;;;;4998673;28;20483;-81
2021/12/08 08:57:02;;;;;;;24.10;8.33;;;2.20;97.30;;;;;;4984889;28;20505;-80
2021/12/08 08:59:32;;;;;;;20.80;8.40;;;2.20;97.30;;;;;;4978841;28;20437;-80
2021/12/08 09:02:06;;;;;;;24.53;9.43;;;2.30;97.30;;;;;;4978876;28;20406;-80
2021/12/08 09:04:37;;;;;;;23.27;9.30;;;2.30;97.30;;;;;;4980085;28;20401;-77
2021/12/08 09:07:07;;;;;;;20.00;8.73;;;2.40;97.30;;;;;;4978973;28;20576;-78
2021/12/08 09:09:46;;;;;;;33.10;11.07;;;2.50;97.30;;;;;;4978688;28;20402;-80
2021/12/08 09:12:23;;;;;;;20.17;8.90;;;2.50;97.30;;;;;;4977638;28;20414;-80
2021/12/08 09:15:09;;;;;;;21.83;9.10;;;2.50;97.30;;;;;;4978164;28;20505;-81
2021/12/08 09:17:46;;;;;;;23.23;9.27;;;2.50;97.30;;;;;;4977937;28;20445;-79
2021/12/08 09:20:22;;;;;;;22.97;9.20;;;2.50;97.30;;;;;;4977955;28;20934;-79
2021/12/08 09:22:56;;;;;;;25.33;9.03;;;2.50;97.30;;;;;;4976987;28;20915;-79
2021/12/08 09:25:40;;;;;;;20.87;9.10;;;2.50;97.30;;;;;;4977381;28;20466;-80
2021/12/08 09:28:34;;;;;;;27.77;12.30;;;2.60;97.30;;;;;;4977834;28;20410;-80
2021/12/08 09:31:08;;;;;;;25.23;9.50;;;2.50;97.30;;;;;;4977894;28;20546;-78
2021/12/08 09:33:54;;;;;;;25.50;8.50;;;2.60;97.30;;;;;;4978342;28;20505;-79
2021/12/08 09:36:29;;;;;;;26.53;9.60;;;2.70;97.30;;;;;;4978267;28;20461;-81
2021/12/08 09:39:08;;;;;;;27.53;9.47;;;2.70;97.30;;;;;;4979122;28;20409;-79
2021/12/08 09:41:49;;;;;;;18.90;8.70;;;2.70;97.30;;;;;;4978403;28;20456;-80
2021/12/08 09:44:22;;;;;;;21.00;8.70;;;2.70;97.30;;;;;;4977645;28;20410;-78
2021/12/08 09:46:50;;;;;;;22.33;9.43;;;2.80;97.30;;;;;;4979336;28;20430;-80
2021/12/08 09:49:23;;;;;;;23.30;7.60;;;2.80;97.30;;;;;;4979451;28;20414;-80
2021/12/08 09:51:49;;;;;;;17.60;8.33;;;2.90;97.30;;;;;;4978102;28;20418;-79
2021/12/08 09:54:15;;;;;;;19.77;8.10;;;2.90;97.30;;;;;;4977812;28;20484;-81
2021/12/08 09:56:42;;;;;;;21.80;8.00;;;2.90;97.30;;;;;;4993806;28;20496;-80
2021/12/08 09:59:09;;;;;;;25.60;8.80;;;2.90;97.30;;;;;;4976569;28;20426;-79
2021/12/08 10:22:28;;;;;;;16.20;6.40;;;3.30;97.30;;;;;;4977929;28;20414;-80
2021/12/08 10:25:20;;;;;;;15.50;7.57;;;3.40;97.30;;;;;;4977425;28;20461;-79
2021/12/08 10:28:10;;;;;;;20.27;7.70;;;3.40;97.30;;;;;;4976956;28;20426;-79
2021/12/08 10:30:54;;;;;;;20.50;6.50;;;3.50;97.30;;;;;;4973711;28;20917;-80
2021/12/08 10:33:37;;;;;;;13.60;6.50;;;3.50;97.30;;;;;;4958288;29;20416;-80
2021/12/08 10:36:23;;;;;;;13.87;7.43;;;3.40;97.30;;;;;;4972410;28;20703;-80
2021/12/08 10:38:50;;;;;;;19.43;8.00;;;3.40;97.30;;;;;;4956341;29;20455;-81
2021/12/08 10:41:16;;;;;;;17.43;6.63;;;3.40;97.30;;;;;;4956404;29;20418;-80
2021/12/08 10:44:00;;;;;;;12.10;6.90;;;3.50;97.30;;;;;;4957023;29;20422;-78
2021/12/08 10:46:39;;;;;;;15.07;7.27;;;3.50;97.30;;;;;;4956996;29;20199;-80
2021/12/08 10:49:19;;;;;;;16.60;7.17;;;3.50;97.30;;;;;;4957185;29;20435;-80
2021/12/08 10:54:43;;;;;;;15.80;6.93;;;3.50;97.30;;;;;;4959275;29;20420;-79
2021/12/08 10:57:32;;;;;;;13.43;6.17;;;3.50;97.30;;;;;;4958401;28;20853;-81
2021/12/08 11:00:30;;;;;;;17.90;6.43;;;3.60;97.30;;;;;;4957934;29;20406;-78
2021/12/08 11:03:00;;;;;;;22.13;7.73;;;3.60;97.30;;;;;;4957088;29;20411;-80
2021/12/08 11:05:26;;;;;;;13.23;6.17;;;3.60;97.30;;;;;;4972671;28;20429;-79
2021/12/08 11:08:08;;;;;;;17.53;6.93;;;3.60;97.30;;;;;;4973436;28;20439;-79
2021/12/08 11:10:48;;;;;;;16.30;6.93;;;3.60;97.30;;;;;;4961089;29;20175;-80
2021/12/08 11:13:18;;;;;;;17.17;7.20;;;3.70;97.30;;;;;;4961166;28;20414;-79
2021/12/08 11:15:44;;;;;;;12.17;4.60;;;3.70;97.30;;;;;;4960796;29;20534;-80
2021/12/08 11:18:15;;;;;;;11.63;5.43;;;3.70;97.30;;;;;;4961172;29;20418;-80
2021/12/08 11:21:03;;;;;;;13.80;5.63;;;3.70;97.30;;;;;;4962404;29;20943;-78
2021/12/08 11:23:42;;;;;;;12.87;5.07;;;3.70;97.30;;;;;;4961830;28;20442;-79
2021/12/08 11:26:25;;;;;;;16.03;5.40;;;3.80;97.30;;;;;;4960786;29;20480;-80
2021/12/08 11:29:15;;;;;;;11.03;4.43;;;3.80;97.30;;;;;;4961369;29;20430;-80
2021/12/08 11:31:50;;;;;;;12.40;5.47;;;3.80;97.30;;;;;;4993095;28;20422;-80
2021/12/08 11:34:22;;;;;;;15.03;5.23;;;3.90;97.30;;;;;;4960662;28;20430;-80
2021/12/08 11:36:54;;;;;;;10.30;5.10;;;3.80;97.30;;;;;;4963208;28;20470;-80
2021/12/08 11:39:24;;;;;;;13.43;5.80;;;3.90;97.30;;;;;;4962090;29;20414;-81
2021/12/08 11:41:59;;;;;;;11.17;5.80;;;3.90;97.30;;;;;;4961292;29;20823;-81
2021/12/08 11:44:27;;;;;;;12.67;5.20;;;3.90;97.30;;;;;;4962351;29;20457;-78
2021/12/08 11:46:57;;;;;;;16.87;5.80;;;3.90;97.30;;;;;;4961305;29;20446;-80
2021/12/08 11:49:24;;;;;;;13.43;5.47;;;3.90;97.30;;;;;;4960722;29;20430;-80
2021/12/08 11:51:56;;;;;;;11.90;5.00;;;3.90;97.30;;;;;;4976523;28;20419;-80
2021/12/08 11:54:36;;;;;;;21.07;7.30;;;3.90;97.30;;;;;;4960422;29;20952;-81
2021/12/08 11:57:11;;;;;;;12.93;6.00;;;3.90;97.30;;;;;;4960192;29;20528;-78
2021/12/08 11:59:48;;;;;;;17.97;5.80;;;3.90;97.30;;;;;;4976962;28;20425;-81
2021/12/08 12:02:15;;;;;;;10.83;5.43;;;3.90;97.30;;;;;;4961495;28;20410;-79
2021/12/08 12:04:44;;;;;;;13.57;5.93;;;3.90;97.30;;;;;;4960871;29;20422;-80
2021/12/08 12:07:12;;;;;;;12.93;5.70;;;3.90;97.30;;;;;;4960797;29;20445;-81
2021/12/08 12:09:40;;;;;;;12.27;5.87;;;3.80;97.30;;;;;;4960215;29;20698;-79
2021/12/08 12:12:06;;;;;;;14.37;6.63;;;3.80;97.30;;;;;;4960592;29;20414;-80
2021/12/08 12:14:32;;;;;;;12.20;6.07;;;3.80;97.30;;;;;;4961034;29;20419;-80
2021/12/08 12:16:58;;;;;;;10.60;6.10;;;3.70;97.30;;;;;;4960711;29;20489;-79
2021/12/08 12:19:27;;;;;;;13.23;5.63;;;3.70;97.30;;;;;;4976955;28;20179;-79
2021/12/08 12:22:23;;;;;;;11.97;5.50;;;3.70;97.30;;;;;;4960042;29;20183;-81
2021/12/08 12:25:16;;;;;;;15.70;6.20;;;3.70;97.30;;;;;;4960053;29;20467;-81
2021/12/08 12:28:00;;;;;;;16.27;5.27;;;3.70;97.30;;;;;;4959804;29;20450;-79
2021/12/08 12:31:19;;;;;;;13.77;5.53;;;3.70;97.30;;;;;;4976466;28;20788;-80
2021/12/08 12:33:46;;;;;;;11.93;6.20;;;3.70;97.30;;;;;;4958994;28;20428;-80
2021/12/08 12:36:28;;;;;;;12.27;4.80;;;3.70;97.30;;;;;;4960217;29;20999;-78
2021/12/08 12:39:17;;;;;;;12.77;5.53;;;3.70;97.30;;;;;;4960852;29;20430;-80
2021/12/08 12:41:55;;;;;;;12.07;6.50;;;3.60;97.30;;;;;;4960886;29;20411;-79
2021/12/08 12:44:24;;;;;;;11.80;5.40;;;3.60;97.30;;;;;;4959754;29;20414;-80
2021/12/08 12:47:05;;;;;;;12.80;6.47;;;3.60;97.30;;;;;;4959729;29;20446;-80
2021/12/08 12:49:33;;;;;;;11.77;5.57;;;3.60;97.30;;;;;;4975603;28;20429;-80
2021/12/08 12:52:00;;;;;;;14.47;6.10;;;3.50;97.30;;;;;;4959983;29;20426;-80
2021/12/08 12:54:27;;;;;;;13.47;6.40;;;3.50;97.30;;;;;;4959451;29;20469;-79
2021/12/08 12:56:55;;;;;;;13.80;6.60;;;3.50;97.30;;;;;;4975800;28;21055;-80
2021/12/08 12:59:25;;;;;;;20.47;6.60;;;3.40;97.30;;;;;;4959081;29;20442;-81
2021/12/08 13:02:36;;;;;;;15.73;6.03;;;3.40;97.30;;;;;;4959870;29;20423;-80
2021/12/08 13:05:11;;;;;;;14.70;6.83;;;3.40;97.30;;;;;;4950798;29;20415;-79
2021/12/08 13:07:54;;;;;;;12.73;6.23;;;3.30;97.30;;;;;;4960231;29;20439;-80
2021/12/08 13:10:28;;;;;;;13.13;5.67;;;3.30;97.30;;;;;;4960353;29;20733;-78
2021/12/08 13:13:12;;;;;;;16.30;7.37;;;3.20;97.30;;;;;;4960689;28;20399;-80
2021/12/08 13:15:43;;;;;;;15.60;6.63;;;3.10;97.30;;;;;;4959389;29;20462;-80
2021/12/08 13:18:13;;;;;;;15.73;7.20;;;3.10;97.30;;;;;;4959293;29;20415;-80
2021/12/08 13:20:46;;;;;;;19.30;8.20;;;3.10;97.30;;;;;;4959493;29;20916;-81
2021/12/08 13:23:14;;;;;;;16.87;6.60;;;3.00;97.30;;;;;;4959119;29;20754;-79
2021/12/08 13:26:02;;;;;;;16.63;7.20;;;3.00;97.30;;;;;;4959122;29;20474;-79
2021/12/08 13:28:50;;;;;;;20.67;7.50;;;3.00;97.30;;;;;;4975700;28;20407;-80
2021/12/08 13:31:58;;;;;;;22.20;7.70;;;3.00;97.30;;;;;;4958892;28;20868;-80
2021/12/08 13:34:11;;;;;;;21.33;9.73;;;3.00;97.30;;;;;;4960215;28;20427;-81
2021/12/08 13:36:45;;;;;;;14.70;6.73;;;3.00;97.30;;;;;;4974786;28;21047;-81
2021/12/08 13:39:25;;;;;;;16.00;7.53;;;3.00;97.30;;;;;;4960711;28;20226;-81
2021/12/08 13:41:58;;;;;;;17.90;7.43;;;2.90;97.30;;;;;;4975213;28;20419;-79
2021/12/08 13:44:34;;;;;;;17.50;7.77;;;2.80;97.30;;;;;;4975068;28;20419;-80
2021/12/08 13:47:20;;;;;;;20.03;7.23;;;2.80;97.30;;;;;;4959689;29;20446;-78
2021/12/08 13:49:51;;;;;;;17.07;7.30;;;2.80;97.30;;;;;;4975008;28;20439;-81
2021/12/08 13:52:44;;;;;;;18.27;7.50;;;2.70;97.30;;;;;;4959133;29;20419;-81
2021/12/08 13:55:14;;;;;;;22.00;8.70;;;2.70;97.30;;;;;;4958733;29;20584;-80
2021/12/08 13:58:11;;;;;;;21.47;8.87;;;2.60;97.30;;;;;;4960424;28;20526;-81
2021/12/08 14:00:54;;;;;;;21.40;8.60;;;2.70;97.30;;;;;;4974809;28;20407;-80
2021/12/08 14:03:34;;;;;;;20.80;8.30;;;2.70;97.30;;;;;;4958047;29;20408;-81
2021/12/08 14:06:00;;;;;;;23.93;8.23;;;2.60;97.30;;;;;;4974183;28;21012;-79
2021/12/08 14:08:29;;;;;;;21.53;7.90;;;2.50;97.30;;;;;;4959685;29;20466;-79
2021/12/08 14:10:56;;;;;;;20.47;8.47;;;2.40;97.30;;;;;;4959494;28;20181;-79